createdAt,value
2019-02-26T00:03:04.999Z,106.00
2019-02-26T00:13:10.822Z,109.23
2019-02-26T00:23:16.408Z,91.77
2019-02-26T00:33:23.067Z,97.93
2019-02-26T00:43:30.650Z,91.17
2019-02-26T00:53:36.674Z,90.33
2019-02-26T01:03:44.352Z,78.60
2019-02-26T01:13:50.776Z,91.53
2019-02-26T01:23:59.645Z,80.27
2019-02-26T01:34:04.703Z,88.00
2019-02-26T01:44:10.550Z,70.33
2019-02-26T01:54:16.829Z,85.30
2019-02-26T02:04:22.699Z,82.00
2019-02-26T02:14:28.425Z,83.23
2019-02-26T02:24:34.117Z,87.83
2019-02-26T02:34:42.930Z,85.87
2019-02-26T02:44:49.286Z,84.10
2019-02-26T02:54:54.614Z,89.60
2019-02-26T03:05:00.419Z,89.07
2019-02-26T03:15:10.037Z,99.40
2019-02-26T03:25:20.510Z,88.67
2019-02-26T03:35:24.598Z,89.90
2019-02-26T03:45:30.573Z,90.90
2019-02-26T03:55:38.799Z,87.30
2019-02-26T04:05:43.542Z,95.33
2019-02-26T04:15:51.511Z,93.33
2019-02-26T04:26:35.117Z,96.90
2019-02-26T04:36:52.556Z,93.03
2019-02-26T04:47:00.222Z,94.90
2019-02-26T04:57:05.783Z,94.57
2019-02-26T05:07:14.018Z,94.87
2019-02-26T05:17:21.859Z,100.77
2019-02-26T05:27:27.494Z,104.57
2019-02-26T05:37:35.406Z,93.90
2019-02-26T05:47:42.876Z,107.17
2019-02-26T05:57:47.743Z,103.97
2019-02-26T06:07:53.564Z,106.13
2019-02-26T06:18:00.625Z,99.73
2019-02-26T06:28:07.654Z,102.67
2019-02-26T06:38:13.651Z,103.33
2019-02-26T06:48:22.347Z,102.07
2019-02-26T06:58:27.667Z,96.63
2019-02-26T07:08:36.379Z,93.57
2019-02-26T07:18:41.974Z,99.43
2019-02-26T07:28:48.715Z,91.43
2019-02-26T07:38:56.538Z,94.10
2019-02-26T07:49:04.761Z,103.57
2019-02-26T07:59:12.451Z,97.37
2019-02-26T08:09:19.418Z,109.63
2019-02-26T08:19:29.737Z,99.67
2019-02-26T08:29:34.311Z,100.23
2019-02-26T08:39:39.998Z,98.90
2019-02-26T08:49:47.500Z,95.27
2019-02-26T08:59:54.558Z,107.53
2019-02-26T09:10:00.400Z,93.63
2019-02-26T09:20:14.670Z,100.67
2019-02-26T09:30:20.608Z,112.40
2019-02-26T09:40:28.868Z,105.13
2019-02-26T09:50:33.701Z,110.27
2019-02-26T10:00:40.579Z,91.03
2019-02-26T10:10:46.900Z,82.03
2019-02-26T10:20:54.614Z,88.97
2019-02-26T10:31:04.219Z,85.53
2019-02-26T10:41:07.012Z,73.93
2019-02-26T10:51:16.733Z,83.53
2019-02-26T11:01:23.620Z,75.23
2019-02-26T11:11:30.428Z,79.23
2019-02-26T11:21:35.966Z,74.00
2019-02-26T11:31:44.575Z,97.40
2019-02-26T11:41:51.324Z,78.77
2019-02-26T11:51:57.470Z,81.40
2019-02-26T12:02:04.545Z,81.43
2019-02-26T12:12:11.597Z,80.10
2019-02-26T12:22:18.065Z,79.00
2019-02-26T12:32:26.924Z,77.80
2019-02-26T12:42:32.874Z,70.80
2019-02-26T12:52:38.727Z,73.57
2019-02-26T13:02:45.853Z,83.60
2019-02-26T13:12:55.201Z,79.30
2019-02-26T13:23:16.449Z,76.03
2019-02-26T13:33:10.811Z,85.93
2019-02-26T13:43:13.981Z,73.93
2019-02-26T13:53:20.084Z,73.77
2019-02-26T14:03:25.767Z,71.30
2019-02-26T14:13:31.754Z,77.07
2019-02-26T14:23:37.445Z,70.73
2019-02-26T14:33:43.031Z,76.90
2019-02-26T14:43:48.636Z,76.30
2019-02-26T14:53:54.315Z,75.43
2019-02-26T15:03:59.911Z,66.57
2019-02-26T15:14:05.493Z,66.67
2019-02-26T15:24:11.210Z,70.13
2019-02-26T15:34:17.121Z,79.20
2019-02-26T15:44:23.017Z,83.50
2019-02-26T15:54:28.630Z,86.80
2019-02-26T16:04:34.576Z,78.47
2019-02-26T16:14:40.333Z,85.03
2019-02-26T16:24:46.341Z,77.87
2019-02-26T16:34:52.997Z,63.87
2019-02-26T16:45:01.202Z,57.83
2019-02-26T16:55:08.949Z,50.77
2019-02-26T17:05:15.179Z,48.23
2019-02-26T17:15:26.955Z,54.27
2019-02-26T17:25:32.622Z,55.33
2019-02-26T17:35:38.341Z,63.63
2019-02-26T17:45:44.031Z,60.43
2019-02-26T17:55:50.076Z,93.03
2019-02-26T18:05:55.856Z,82.23
2019-02-26T18:16:08.953Z,98.13
2019-02-26T18:26:08.898Z,101.47
2019-02-26T18:36:14.563Z,95.87
2019-02-26T18:46:20.273Z,92.53
2019-02-26T18:56:26.001Z,88.10
2019-02-26T19:06:31.976Z,97.70
2019-02-26T19:16:37.485Z,98.20
2019-02-26T19:26:44.463Z,72.40
2019-02-26T19:36:50.534Z,85.17
2019-02-26T19:46:57.648Z,72.53
2019-02-26T19:57:03.361Z,78.83
2019-02-26T20:07:09.170Z,83.17
2019-02-26T20:17:15.044Z,81.17
2019-02-26T20:27:21.813Z,84.17
2019-02-26T20:37:29.044Z,83.80
2019-02-26T20:47:34.942Z,79.63
2019-02-26T20:57:40.806Z,94.10
2019-02-26T21:07:46.551Z,94.17
2019-02-26T21:17:52.231Z,92.67
2019-02-26T21:28:00.701Z,98.37
2019-02-26T21:38:06.810Z,91.10
2019-02-26T21:48:12.729Z,92.13
2019-02-26T21:58:18.530Z,78.20
2019-02-26T22:08:25.224Z,76.83
2019-02-26T22:18:34.053Z,69.43
2019-02-26T22:28:39.724Z,64.03
2019-02-26T22:38:49.016Z,56.90
2019-02-26T22:48:53.576Z,51.87
2019-02-26T22:58:59.378Z,56.50
2019-02-26T23:09:05.732Z,45.63
2019-02-26T23:19:13.156Z,46.10
2019-02-26T23:29:19.146Z,57.47
2019-02-26T23:39:25.891Z,57.97
2019-02-26T23:49:33.116Z,73.00
2019-02-26T23:59:38.720Z,49.77
